sensor_id;sensor_type;location;lat;lon;timestamp;P1;durP1;ratioP1;P2;durP2;ratioP2
8225;SDS011;4154;48.810;9.012;2023-05-07T00:00:45;5.28;;;3.60;;
8225;SDS011;4154;48.810;9.012;2023-05-07T00:03:10;3.60;;;3.30;;
8225;SDS011;4154;48.810;9.012;2023-05-07T00:05:36;3.45;;;3.15;;
8225;SDS011;4154;48.810;9.012;2023-05-07T00:08:02;3.20;;;2.90;;
8225;SDS011;4154;48.810;9.012;2023-05-07T00:10:28;3.30;;;3.00;;
8225;SDS011;4154;48.810;9.012;2023-05-07T00:12:54;3.45;;;3.05;;
8225;SDS011;4154;48.810;9.012;2023-05-07T00:15:20;4.15;;;3.20;;
8225;SDS011;4154;48.810;9.012;2023-05-07T00:17:46;3.35;;;3.05;;
8225;SDS011;4154;48.810;9.012;2023-05-07T00:20:12;3.55;;;3.10;;
8225;SDS011;4154;48.810;9.012;2023-05-07T00:22:38;4.05;;;2.97;;
8225;SDS011;4154;48.810;9.012;2023-05-07T00:25:04;4.07;;;3.13;;
8225;SDS011;4154;48.810;9.012;2023-05-07T00:27:30;4.53;;;3.03;;
8225;SDS011;4154;48.810;9.012;2023-05-07T00:29:56;3.80;;;3.20;;
8225;SDS011;4154;48.810;9.012;2023-05-07T00:32:22;3.50;;;3.20;;
8225;SDS011;4154;48.810;9.012;2023-05-07T00:34:47;3.83;;;3.10;;
8225;SDS011;4154;48.810;9.012;2023-05-07T00:37:14;3.17;;;2.92;;
8225;SDS011;4154;48.810;9.012;2023-05-07T00:39:39;3.40;;;3.10;;
8225;SDS011;4154;48.810;9.012;2023-05-07T00:42:05;3.67;;;3.38;;
8225;SDS011;4154;48.810;9.012;2023-05-07T00:44:31;4.40;;;2.97;;
8225;SDS011;4154;48.810;9.012;2023-05-07T00:46:56;4.13;;;3.03;;
8225;SDS011;4154;48.810;9.012;2023-05-07T00:49:24;3.50;;;3.20;;
8225;SDS011;4154;48.810;9.012;2023-05-07T00:52:05;3.42;;;3.08;;
8225;SDS011;4154;48.810;9.012;2023-05-07T00:54:34;3.17;;;2.97;;
8225;SDS011;4154;48.810;9.012;2023-05-07T00:57:01;4.65;;;3.20;;
8225;SDS011;4154;48.810;9.012;2023-05-07T00:59:28;3.17;;;2.88;;
8225;SDS011;4154;48.810;9.012;2023-05-07T01:01:56;3.65;;;3.22;;
8225;SDS011;4154;48.810;9.012;2023-05-07T01:04:22;3.40;;;3.10;;
8225;SDS011;4154;48.810;9.012;2023-05-07T01:06:48;3.75;;;2.90;;
8225;SDS011;4154;48.810;9.012;2023-05-07T01:09:16;3.40;;;3.10;;
8225;SDS011;4154;48.810;9.012;2023-05-07T01:11:42;4.88;;;3.22;;
8225;SDS011;4154;48.810;9.012;2023-05-07T01:14:09;3.38;;;3.00;;
8225;SDS011;4154;48.810;9.012;2023-05-07T01:16:35;3.30;;;2.78;;
8225;SDS011;4154;48.810;9.012;2023-05-07T01:19:02;3.30;;;3.00;;
8225;SDS011;4154;48.810;9.012;2023-05-07T01:21:28;4.07;;;2.60;;
8225;SDS011;4154;48.810;9.012;2023-05-07T01:23:59;3.08;;;2.80;;
8225;SDS011;4154;48.810;9.012;2023-05-07T01:26:26;2.83;;;2.63;;
8225;SDS011;4154;48.810;9.012;2023-05-07T01:28:52;3.22;;;2.92;;
8225;SDS011;4154;48.810;9.012;2023-05-07T01:31:18;4.18;;;2.97;;
8225;SDS011;4154;48.810;9.012;2023-05-07T01:33:44;3.08;;;2.78;;
8225;SDS011;4154;48.810;9.012;2023-05-07T01:36:13;4.88;;;2.80;;
8225;SDS011;4154;48.810;9.012;2023-05-07T01:38:42;3.05;;;2.75;;
8225;SDS011;4154;48.810;9.012;2023-05-07T01:41:09;3.22;;;2.90;;
8225;SDS011;4154;48.810;9.012;2023-05-07T01:43:36;3.20;;;2.60;;
8225;SDS011;4154;48.810;9.012;2023-05-07T01:46:02;3.13;;;2.53;;
8225;SDS011;4154;48.810;9.012;2023-05-07T01:48:28;4.13;;;2.80;;
8225;SDS011;4154;48.810;9.012;2023-05-07T01:50:55;3.60;;;2.80;;
8225;SDS011;4154;48.810;9.012;2023-05-07T01:53:20;4.18;;;3.00;;
8225;SDS011;4154;48.810;9.012;2023-05-07T01:55:46;3.78;;;2.70;;
8225;SDS011;4154;48.810;9.012;2023-05-07T01:58:12;3.03;;;2.80;;
8225;SDS011;4154;48.810;9.012;2023-05-07T02:00:39;4.30;;;2.50;;
8225;SDS011;4154;48.810;9.012;2023-05-07T02:03:05;3.15;;;2.60;;
8225;SDS011;4154;48.810;9.012;2023-05-07T02:05:31;3.33;;;3.03;;
8225;SDS011;4154;48.810;9.012;2023-05-07T02:07:57;3.40;;;3.08;;
8225;SDS011;4154;48.810;9.012;2023-05-07T02:10:23;4.47;;;2.97;;
8225;SDS011;4154;48.810;9.012;2023-05-07T02:12:48;3.30;;;2.97;;
8225;SDS011;4154;48.810;9.012;2023-05-07T02:15:14;3.53;;;3.03;;
8225;SDS011;4154;48.810;9.012;2023-05-07T02:17:57;3.37;;;3.07;;
8225;SDS011;4154;48.810;9.012;2023-05-07T02:20:26;4.07;;;3.22;;
8225;SDS011;4154;48.810;9.012;2023-05-07T02:22:52;4.47;;;3.25;;
8225;SDS011;4154;48.810;9.012;2023-05-07T02:25:17;3.83;;;3.40;;
8225;SDS011;4154;48.810;9.012;2023-05-07T02:27:44;3.72;;;3.30;;
8225;SDS011;4154;48.810;9.012;2023-05-07T02:30:10;3.60;;;3.30;;
8225;SDS011;4154;48.810;9.012;2023-05-07T02:32:36;4.07;;;3.20;;
8225;SDS011;4154;48.810;9.012;2023-05-07T02:35:01;3.45;;;2.90;;
8225;SDS011;4154;48.810;9.012;2023-05-07T02:37:27;4.23;;;3.10;;
8225;SDS011;4154;48.810;9.012;2023-05-07T02:39:54;3.58;;;3.10;;
8225;SDS011;4154;48.810;9.012;2023-05-07T02:42:20;3.42;;;3.05;;
8225;SDS011;4154;48.810;9.012;2023-05-07T02:44:46;3.80;;;3.20;;
8225;SDS011;4154;48.810;9.012;2023-05-07T02:47:12;3.50;;;3.20;;
8225;SDS011;4154;48.810;9.012;2023-05-07T02:49:40;3.65;;;3.35;;
8225;SDS011;4154;48.810;9.012;2023-05-07T02:52:06;3.70;;;3.40;;
8225;SDS011;4154;48.810;9.012;2023-05-07T02:54:32;4.18;;;3.30;;
8225;SDS011;4154;48.810;9.012;2023-05-07T02:56:58;3.60;;;3.30;;
8225;SDS011;4154;48.810;9.012;2023-05-07T02:59:25;3.28;;;3.08;;
8225;SDS011;4154;48.810;9.012;2023-05-07T03:01:51;3.60;;;3.30;;
8225;SDS011;4154;48.810;9.012;2023-05-07T03:04:17;3.87;;;3.30;;
8225;SDS011;4154;48.810;9.012;2023-05-07T03:06:43;3.85;;;3.35;;
8225;SDS011;4154;48.810;9.012;2023-05-07T03:09:09;3.77;;;3.47;;
8225;SDS011;4154;48.810;9.012;2023-05-07T03:11:35;4.18;;;3.47;;
8225;SDS011;4154;48.810;9.012;2023-05-07T03:14:01;4.18;;;3.15;;
8225;SDS011;4154;48.810;9.012;2023-05-07T03:16:27;4.10;;;3.13;;
8225;SDS011;4154;48.810;9.012;2023-05-07T03:18:53;3.40;;;3.13;;
8225;SDS011;4154;48.810;9.012;2023-05-07T03:21:19;3.77;;;3.47;;
8225;SDS011;4154;48.810;9.012;2023-05-07T03:23:45;4.17;;;3.70;;
8225;SDS011;4154;48.810;9.012;2023-05-07T03:26:11;3.93;;;3.27;;
8225;SDS011;4154;48.810;9.012;2023-05-07T03:28:37;5.03;;;3.17;;
8225;SDS011;4154;48.810;9.012;2023-05-07T03:31:02;3.73;;;3.33;;
8225;SDS011;4154;48.810;9.012;2023-05-07T03:33:29;3.80;;;3.50;;
8225;SDS011;4154;48.810;9.012;2023-05-07T03:35:54;3.77;;;3.20;;
8225;SDS011;4154;48.810;9.012;2023-05-07T03:38:20;3.73;;;3.43;;
8225;SDS011;4154;48.810;9.012;2023-05-07T03:40:46;3.43;;;3.00;;
8225;SDS011;4154;48.810;9.012;2023-05-07T03:43:12;3.47;;;2.97;;
8225;SDS011;4154;48.810;9.012;2023-05-07T03:45:37;3.90;;;3.20;;
8225;SDS011;4154;48.810;9.012;2023-05-07T03:48:04;3.57;;;3.30;;
8225;SDS011;4154;48.810;9.012;2023-05-07T03:50:29;4.27;;;3.30;;
8225;SDS011;4154;48.810;9.012;2023-05-07T03:52:55;4.30;;;3.33;;
8225;SDS011;4154;48.810;9.012;2023-05-07T03:55:21;4.30;;;3.43;;
8225;SDS011;4154;48.810;9.012;2023-05-07T03:57:47;3.87;;;3.20;;
8225;SDS011;4154;48.810;9.012;2023-05-07T04:00:13;3.50;;;3.20;;
8225;SDS011;4154;48.810;9.012;2023-05-07T04:02:39;3.93;;;3.10;;
8225;SDS011;4154;48.810;9.012;2023-05-07T04:05:04;4.20;;;3.43;;
8225;SDS011;4154;48.810;9.012;2023-05-07T04:07:30;4.00;;;3.30;;
8225;SDS011;4154;48.810;9.012;2023-05-07T04:09:56;3.90;;;3.00;;
8225;SDS011;4154;48.810;9.012;2023-05-07T04:12:22;3.33;;;3.03;;
8225;SDS011;4154;48.810;9.012;2023-05-07T04:14:48;3.00;;;2.80;;
8225;SDS011;4154;48.810;9.012;2023-05-07T04:17:14;3.57;;;3.20;;
8225;SDS011;4154;48.810;9.012;2023-05-07T04:19:40;3.50;;;3.20;;
8225;SDS011;4154;48.810;9.012;2023-05-07T04:22:10;3.80;;;3.50;;
8225;SDS011;4154;48.810;9.012;2023-05-07T04:24:36;3.57;;;3.27;;
8225;SDS011;4154;48.810;9.012;2023-05-07T04:27:02;4.20;;;3.30;;
8225;SDS011;4154;48.810;9.012;2023-05-07T04:29:28;3.57;;;3.27;;
8225;SDS011;4154;48.810;9.012;2023-05-07T04:31:54;4.23;;;3.10;;
8225;SDS011;4154;48.810;9.012;2023-05-07T04:34:21;3.80;;;3.50;;
8225;SDS011;4154;48.810;9.012;2023-05-07T04:36:47;3.63;;;3.30;;
8225;SDS011;4154;48.810;9.012;2023-05-07T04:39:13;3.73;;;3.43;;
8225;SDS011;4154;48.810;9.012;2023-05-07T04:41:38;3.50;;;3.20;;
8225;SDS011;4154;48.810;9.012;2023-05-07T04:44:05;3.70;;;3.40;;
8225;SDS011;4154;48.810;9.012;2023-05-07T04:46:31;4.30;;;3.13;;
8225;SDS011;4154;48.810;9.012;2023-05-07T04:48:57;4.13;;;3.80;;
8225;SDS011;4154;48.810;9.012;2023-05-07T04:51:23;3.80;;;3.37;;
8225;SDS011;4154;48.810;9.012;2023-05-07T04:53:49;4.57;;;3.77;;
8225;SDS011;4154;48.810;9.012;2023-05-07T04:56:15;4.17;;;3.67;;
8225;SDS011;4154;48.810;9.012;2023-05-07T04:58:41;3.80;;;3.50;;
8225;SDS011;4154;48.810;9.012;2023-05-07T05:01:07;3.70;;;3.40;;
8225;SDS011;4154;48.810;9.012;2023-05-07T05:03:33;3.97;;;3.43;;
8225;SDS011;4154;48.810;9.012;2023-05-07T05:05:59;4.67;;;3.60;;
8225;SDS011;4154;48.810;9.012;2023-05-07T05:08:24;3.70;;;3.40;;
8225;SDS011;4154;48.810;9.012;2023-05-07T05:10:50;3.87;;;3.47;;
8225;SDS011;4154;48.810;9.012;2023-05-07T05:13:16;3.63;;;3.33;;
8225;SDS011;4154;48.810;9.012;2023-05-07T05:15:42;4.27;;;3.47;;
8225;SDS011;4154;48.810;9.012;2023-05-07T05:18:08;4.30;;;3.63;;
8225;SDS011;4154;48.810;9.012;2023-05-07T05:20:34;3.93;;;3.57;;
8225;SDS011;4154;48.810;9.012;2023-05-07T05:22:59;3.67;;;3.37;;
8225;SDS011;4154;48.810;9.012;2023-05-07T05:25:25;3.73;;;3.13;;
8225;SDS011;4154;48.810;9.012;2023-05-07T05:27:53;3.43;;;3.10;;
8225;SDS011;4154;48.810;9.012;2023-05-07T05:30:19;3.57;;;3.23;;
8225;SDS011;4154;48.810;9.012;2023-05-07T05:32:45;4.10;;;3.23;;
8225;SDS011;4154;48.810;9.012;2023-05-07T05:35:11;3.70;;;3.00;;
8225;SDS011;4154;48.810;9.012;2023-05-07T05:37:36;3.67;;;3.30;;
8225;SDS011;4154;48.810;9.012;2023-05-07T05:40:02;3.80;;;3.50;;
8225;SDS011;4154;48.810;9.012;2023-05-07T05:42:29;3.80;;;3.50;;
8225;SDS011;4154;48.810;9.012;2023-05-07T05:44:54;4.03;;;3.40;;
8225;SDS011;4154;48.810;9.012;2023-05-07T05:47:20;3.70;;;3.40;;
8225;SDS011;4154;48.810;9.012;2023-05-07T05:49:47;3.70;;;3.40;;
8225;SDS011;4154;48.810;9.012;2023-05-07T05:52:13;3.70;;;3.20;;
8225;SDS011;4154;48.810;9.012;2023-05-07T05:54:39;4.00;;;3.60;;
8225;SDS011;4154;48.810;9.012;2023-05-07T05:57:05;3.97;;;3.45;;
8225;SDS011;4154;48.810;9.012;2023-05-07T05:59:30;3.88;;;3.17;;
8225;SDS011;4154;48.810;9.012;2023-05-07T06:01:57;3.40;;;3.13;;
8225;SDS011;4154;48.810;9.012;2023-05-07T06:04:22;3.80;;;3.20;;
8225;SDS011;4154;48.810;9.012;2023-05-07T06:06:48;4.00;;;3.60;;
8225;SDS011;4154;48.810;9.012;2023-05-07T06:09:14;3.95;;;3.65;;
8225;SDS011;4154;48.810;9.012;2023-05-07T06:11:40;3.97;;;3.58;;
8225;SDS011;4154;48.810;9.012;2023-05-07T06:14:06;4.20;;;3.80;;
8225;SDS011;4154;48.810;9.012;2023-05-07T06:16:32;4.30;;;3.53;;
8225;SDS011;4154;48.810;9.012;2023-05-07T06:18:58;4.30;;;4.00;;
8225;SDS011;4154;48.810;9.012;2023-05-07T06:21:24;4.63;;;3.97;;
8225;SDS011;4154;48.810;9.012;2023-05-07T06:23:49;4.50;;;4.10;;
8225;SDS011;4154;48.810;9.012;2023-05-07T06:26:17;5.30;;;3.88;;
8225;SDS011;4154;48.810;9.012;2023-05-07T06:28:42;4.78;;;3.80;;
8225;SDS011;4154;48.810;9.012;2023-05-07T06:31:15;4.47;;;4.07;;
8225;SDS011;4154;48.810;9.012;2023-05-07T06:33:45;3.60;;;3.30;;
8225;SDS011;4154;48.810;9.012;2023-05-07T06:36:11;3.55;;;3.25;;
8225;SDS011;4154;48.810;9.012;2023-05-07T06:38:37;4.00;;;3.60;;
8225;SDS011;4154;48.810;9.012;2023-05-07T06:41:05;3.50;;;3.20;;
8225;SDS011;4154;48.810;9.012;2023-05-07T06:43:31;4.40;;;3.90;;
8225;SDS011;4154;48.810;9.012;2023-05-07T06:45:57;3.90;;;3.60;;
8225;SDS011;4154;48.810;9.012;2023-05-07T06:48:23;3.90;;;3.60;;
8225;SDS011;4154;48.810;9.012;2023-05-07T06:50:49;4.72;;;4.32;;
8225;SDS011;4154;48.810;9.012;2023-05-07T06:53:15;4.82;;;4.30;;
8225;SDS011;4154;48.810;9.012;2023-05-07T06:55:41;4.20;;;3.85;;
8225;SDS011;4154;48.810;9.012;2023-05-07T06:58:07;5.30;;;4.80;;
8225;SDS011;4154;48.810;9.012;2023-05-07T07:00:32;5.50;;;4.80;;
8225;SDS011;4154;48.810;9.012;2023-05-07T07:02:59;4.80;;;4.40;;
8225;SDS011;4154;48.810;9.012;2023-05-07T07:05:25;4.95;;;4.45;;
8225;SDS011;4154;48.810;9.012;2023-05-07T07:07:51;4.53;;;4.18;;
8225;SDS011;4154;48.810;9.012;2023-05-07T07:10:20;4.80;;;4.40;;
8225;SDS011;4154;48.810;9.012;2023-05-07T07:12:46;5.10;;;4.60;;
8225;SDS011;4154;48.810;9.012;2023-05-07T07:15:13;5.32;;;4.78;;
8225;SDS011;4154;48.810;9.012;2023-05-07T07:17:39;6.22;;;4.40;;
8225;SDS011;4154;48.810;9.012;2023-05-07T07:20:05;4.78;;;4.38;;
8225;SDS011;4154;48.810;9.012;2023-05-07T07:22:31;5.50;;;5.00;;
8225;SDS011;4154;48.810;9.012;2023-05-07T07:24:57;5.45;;;4.50;;
8225;SDS011;4154;48.810;9.012;2023-05-07T07:27:23;4.90;;;4.50;;
8225;SDS011;4154;48.810;9.012;2023-05-07T07:29:49;5.65;;;4.70;;
8225;SDS011;4154;48.810;9.012;2023-05-07T07:32:15;5.38;;;4.97;;
8225;SDS011;4154;48.810;9.012;2023-05-07T07:34:41;4.68;;;4.28;;
8225;SDS011;4154;48.810;9.012;2023-05-07T07:37:06;5.45;;;4.90;;
8225;SDS011;4154;48.810;9.012;2023-05-07T07:39:32;4.97;;;4.47;;
8225;SDS011;4154;48.810;9.012;2023-05-07T07:41:58;4.97;;;4.45;;
8225;SDS011;4154;48.810;9.012;2023-05-07T07:44:24;5.25;;;4.82;;
8225;SDS011;4154;48.810;9.012;2023-05-07T07:46:50;6.00;;;4.85;;
8225;SDS011;4154;48.810;9.012;2023-05-07T07:49:17;4.97;;;4.57;;
8225;SDS011;4154;48.810;9.012;2023-05-07T07:51:43;5.07;;;4.57;;
8225;SDS011;4154;48.810;9.012;2023-05-07T07:54:09;5.72;;;5.22;;
8225;SDS011;4154;48.810;9.012;2023-05-07T07:56:35;5.95;;;4.47;;
8225;SDS011;4154;48.810;9.012;2023-05-07T07:59:01;4.68;;;4.28;;
8225;SDS011;4154;48.810;9.012;2023-05-07T08:01:30;4.95;;;4.53;;
8225;SDS011;4154;48.810;9.012;2023-05-07T08:03:56;4.55;;;4.20;;
8225;SDS011;4154;48.810;9.012;2023-05-07T08:06:24;6.05;;;4.97;;
8225;SDS011;4154;48.810;9.012;2023-05-07T08:08:51;4.47;;;4.13;;
8225;SDS011;4154;48.810;9.012;2023-05-07T08:11:17;5.13;;;4.68;;
8225;SDS011;4154;48.810;9.012;2023-05-07T08:13:43;6.00;;;4.70;;
8225;SDS011;4154;48.810;9.012;2023-05-07T08:16:10;5.38;;;4.32;;
8225;SDS011;4154;48.810;9.012;2023-05-07T08:18:36;7.82;;;5.03;;
8225;SDS011;4154;48.810;9.012;2023-05-07T08:21:01;4.15;;;3.85;;
8225;SDS011;4154;48.810;9.012;2023-05-07T08:23:28;4.47;;;4.13;;
8225;SDS011;4154;48.810;9.012;2023-05-07T08:25:53;4.80;;;4.10;;
8225;SDS011;4154;48.810;9.012;2023-05-07T08:28:19;4.00;;;3.70;;
8225;SDS011;4154;48.810;9.012;2023-05-07T08:30:46;3.95;;;3.65;;
8225;SDS011;4154;48.810;9.012;2023-05-07T08:33:12;4.10;;;3.70;;
8225;SDS011;4154;48.810;9.012;2023-05-07T08:35:38;4.72;;;3.70;;
8225;SDS011;4154;48.810;9.012;2023-05-07T08:38:04;3.65;;;3.35;;
8225;SDS011;4154;48.810;9.012;2023-05-07T08:40:30;3.78;;;3.22;;
8225;SDS011;4154;48.810;9.012;2023-05-07T08:43:05;4.05;;;3.25;;
8225;SDS011;4154;48.810;9.012;2023-05-07T08:45:32;3.40;;;3.13;;
8225;SDS011;4154;48.810;9.012;2023-05-07T08:48:00;3.25;;;2.97;;
8225;SDS011;4154;48.810;9.012;2023-05-07T08:50:30;2.88;;;2.67;;
8225;SDS011;4154;48.810;9.012;2023-05-07T08:52:56;3.63;;;3.17;;
8225;SDS011;4154;48.810;9.012;2023-05-07T08:55:23;3.30;;;3.00;;
8225;SDS011;4154;48.810;9.012;2023-05-07T08:57:49;3.08;;;2.60;;
8225;SDS011;4154;48.810;9.012;2023-05-07T09:00:15;3.03;;;2.80;;
8225;SDS011;4154;48.810;9.012;2023-05-07T09:02:41;2.85;;;2.65;;
8225;SDS011;4154;48.810;9.012;2023-05-07T09:05:07;3.53;;;2.50;;
8225;SDS011;4154;48.810;9.012;2023-05-07T09:07:34;3.35;;;2.70;;
8225;SDS011;4154;48.810;9.012;2023-05-07T09:10:03;5.18;;;2.75;;
8225;SDS011;4154;48.810;9.012;2023-05-07T09:12:30;3.10;;;2.28;;
8225;SDS011;4154;48.810;9.012;2023-05-07T09:14:57;2.80;;;2.58;;
8225;SDS011;4154;48.810;9.012;2023-05-07T09:17:24;2.72;;;2.45;;
8225;SDS011;4154;48.810;9.012;2023-05-07T09:19:50;3.08;;;2.35;;
8225;SDS011;4154;48.810;9.012;2023-05-07T09:22:16;2.97;;;2.67;;
8225;SDS011;4154;48.810;9.012;2023-05-07T09:24:49;3.33;;;2.80;;
8225;SDS011;4154;48.810;9.012;2023-05-07T09:27:17;3.40;;;3.00;;
8225;SDS011;4154;48.810;9.012;2023-05-07T09:29:43;3.03;;;2.33;;
8225;SDS011;4154;48.810;9.012;2023-05-07T09:32:09;2.60;;;2.40;;
8225;SDS011;4154;48.810;9.012;2023-05-07T09:34:36;2.80;;;2.50;;
8225;SDS011;4154;48.810;9.012;2023-05-07T09:37:04;4.22;;;2.63;;
8225;SDS011;4154;48.810;9.012;2023-05-07T09:39:38;3.15;;;2.30;;
8225;SDS011;4154;48.810;9.012;2023-05-07T09:42:12;4.05;;;2.30;;
8225;SDS011;4154;48.810;9.012;2023-05-07T09:44:41;2.22;;;2.03;;
8225;SDS011;4154;48.810;9.012;2023-05-07T09:47:09;4.07;;;2.50;;
8225;SDS011;4154;48.810;9.012;2023-05-07T09:49:37;3.42;;;2.40;;
8225;SDS011;4154;48.810;9.012;2023-05-07T09:52:07;2.67;;;2.10;;
8225;SDS011;4154;48.810;9.012;2023-05-07T09:54:35;2.63;;;2.42;;
8225;SDS011;4154;48.810;9.012;2023-05-07T09:57:02;2.90;;;2.40;;
8225;SDS011;4154;48.810;9.012;2023-05-07T09:59:31;2.78;;;2.50;;
8225;SDS011;4154;48.810;9.012;2023-05-07T10:01:58;2.40;;;2.20;;
8225;SDS011;4154;48.810;9.012;2023-05-07T10:04:26;2.50;;;2.30;;
8225;SDS011;4154;48.810;9.012;2023-05-07T10:06:53;2.85;;;2.47;;
8225;SDS011;4154;48.810;9.012;2023-05-07T10:09:20;2.60;;;2.40;;
8225;SDS011;4154;48.810;9.012;2023-05-07T10:11:51;2.55;;;2.20;;
8225;SDS011;4154;48.810;9.012;2023-05-07T10:14:17;2.40;;;2.20;;
8225;SDS011;4154;48.810;9.012;2023-05-07T10:16:46;2.55;;;2.25;;
8225;SDS011;4154;48.810;9.012;2023-05-07T10:19:13;2.80;;;2.50;;
8225;SDS011;4154;48.810;9.012;2023-05-07T10:21:43;3.63;;;2.35;;
8225;SDS011;4154;48.810;9.012;2023-05-07T10:26:47;2.72;;;2.53;;
8225;SDS011;4154;48.810;9.012;2023-05-07T10:34:36;2.88;;;2.58;;
8225;SDS011;4154;48.810;9.012;2023-05-07T10:37:05;2.78;;;2.58;;
8225;SDS011;4154;48.810;9.012;2023-05-07T10:39:31;2.65;;;2.30;;
8225;SDS011;4154;48.810;9.012;2023-05-07T10:42:03;2.90;;;2.20;;
8225;SDS011;4154;48.810;9.012;2023-05-07T10:44:36;2.35;;;2.17;;
8225;SDS011;4154;48.810;9.012;2023-05-07T10:47:06;2.60;;;2.33;;
8225;SDS011;4154;48.810;9.012;2023-05-07T10:52:13;3.00;;;2.58;;
8225;SDS011;4154;48.810;9.012;2023-05-07T10:54:41;2.85;;;2.40;;
8225;SDS011;4154;48.810;9.012;2023-05-07T11:00:02;2.45;;;2.25;;
8225;SDS011;4154;48.810;9.012;2023-05-07T11:05:28;3.08;;;2.15;;
8225;SDS011;4154;48.810;9.012;2023-05-07T11:07:57;2.83;;;2.45;;
8225;SDS011;4154;48.810;9.012;2023-05-07T11:13:15;3.15;;;2.33;;
8225;SDS011;4154;48.810;9.012;2023-05-07T11:15:43;4.13;;;2.58;;
8225;SDS011;4154;48.810;9.012;2023-05-07T11:18:12;4.28;;;2.80;;
8225;SDS011;4154;48.810;9.012;2023-05-07T11:26:04;3.10;;;2.78;;
8225;SDS011;4154;48.810;9.012;2023-05-07T11:28:30;4.18;;;2.70;;
8225;SDS011;4154;48.810;9.012;2023-05-07T11:31:02;3.28;;;2.88;;
8225;SDS011;4154;48.810;9.012;2023-05-07T11:33:29;3.28;;;2.97;;
8225;SDS011;4154;48.810;9.012;2023-05-07T11:35:56;3.10;;;2.80;;
8225;SDS011;4154;48.810;9.012;2023-05-07T11:38:23;3.00;;;2.70;;
8225;SDS011;4154;48.810;9.012;2023-05-07T11:43:22;3.47;;;2.80;;
8225;SDS011;4154;48.810;9.012;2023-05-07T11:45:48;3.33;;;2.72;;
8225;SDS011;4154;48.810;9.012;2023-05-07T11:48:15;3.40;;;3.10;;
8225;SDS011;4154;48.810;9.012;2023-05-07T11:50:52;3.90;;;3.50;;
8225;SDS011;4154;48.810;9.012;2023-05-07T11:53:35;3.22;;;2.75;;
8225;SDS011;4154;48.810;9.012;2023-05-07T11:56:10;3.60;;;2.72;;
8225;SDS011;4154;48.810;9.012;2023-05-07T11:58:39;3.03;;;2.78;;
8225;SDS011;4154;48.810;9.012;2023-05-07T12:01:10;3.00;;;2.70;;
8225;SDS011;4154;48.810;9.012;2023-05-07T12:03:39;2.80;;;2.60;;
8225;SDS011;4154;48.810;9.012;2023-05-07T12:06:13;3.90;;;3.53;;
8225;SDS011;4154;48.810;9.012;2023-05-07T12:08:41;5.15;;;4.40;;
8225;SDS011;4154;48.810;9.012;2023-05-07T12:11:10;4.82;;;3.90;;
8225;SDS011;4154;48.810;9.012;2023-05-07T12:13:48;4.60;;;3.30;;
8225;SDS011;4154;48.810;9.012;2023-05-07T12:16:13;4.30;;;3.10;;
8225;SDS011;4154;48.810;9.012;2023-05-07T12:18:39;5.43;;;2.63;;
8225;SDS011;4154;48.810;9.012;2023-05-07T12:21:05;3.53;;;2.83;;
8225;SDS011;4154;48.810;9.012;2023-05-07T12:23:33;5.72;;;2.45;;
8225;SDS011;4154;48.810;9.012;2023-05-07T12:26:01;2.80;;;2.40;;
8225;SDS011;4154;48.810;9.012;2023-05-07T12:28:27;3.58;;;2.45;;
8225;SDS011;4154;48.810;9.012;2023-05-07T12:30:54;4.35;;;2.22;;
8225;SDS011;4154;48.810;9.012;2023-05-07T12:33:24;3.35;;;1.92;;
8225;SDS011;4154;48.810;9.012;2023-05-07T12:35:53;1.73;;;1.60;;
8225;SDS011;4154;48.810;9.012;2023-05-07T12:38:20;1.33;;;1.23;;
8225;SDS011;4154;48.810;9.012;2023-05-07T12:40:47;2.97;;;1.50;;
8225;SDS011;4154;48.810;9.012;2023-05-07T12:43:19;1.50;;;1.40;;
8225;SDS011;4154;48.810;9.012;2023-05-07T12:45:49;1.73;;;1.38;;
8225;SDS011;4154;48.810;9.012;2023-05-07T12:48:16;1.83;;;1.70;;
8225;SDS011;4154;48.810;9.012;2023-05-07T12:50:42;2.35;;;1.92;;
8225;SDS011;4154;48.810;9.012;2023-05-07T12:53:09;3.92;;;1.90;;
8225;SDS011;4154;48.810;9.012;2023-05-07T12:55:44;2.70;;;2.25;;
8225;SDS011;4154;48.810;9.012;2023-05-07T12:58:19;4.32;;;2.50;;
8225;SDS011;4154;48.810;9.012;2023-05-07T13:01:01;5.20;;;2.70;;
8225;SDS011;4154;48.810;9.012;2023-05-07T13:03:34;4.57;;;2.85;;
8225;SDS011;4154;48.810;9.012;2023-05-07T13:06:03;3.20;;;2.67;;
8225;SDS011;4154;48.810;9.012;2023-05-07T13:08:32;3.85;;;2.50;;
8225;SDS011;4154;48.810;9.012;2023-05-07T13:11:01;5.13;;;2.72;;
8225;SDS011;4154;48.810;9.012;2023-05-07T13:13:31;3.88;;;2.17;;
8225;SDS011;4154;48.810;9.012;2023-05-07T13:15:59;6.03;;;2.42;;
8225;SDS011;4154;48.810;9.012;2023-05-07T13:18:26;3.38;;;2.13;;
8225;SDS011;4154;48.810;9.012;2023-05-07T13:20:54;4.35;;;2.50;;
8225;SDS011;4154;48.810;9.012;2023-05-07T13:23:20;3.97;;;2.50;;
8225;SDS011;4154;48.810;9.012;2023-05-07T13:25:47;4.82;;;2.40;;
8225;SDS011;4154;48.810;9.012;2023-05-07T13:28:13;2.58;;;2.38;;
8225;SDS011;4154;48.810;9.012;2023-05-07T13:30:39;5.75;;;2.28;;
8225;SDS011;4154;48.810;9.012;2023-05-07T13:33:06;5.32;;;2.50;;
8225;SDS011;4154;48.810;9.012;2023-05-07T13:35:32;3.03;;;2.40;;
8225;SDS011;4154;48.810;9.012;2023-05-07T13:37:58;3.78;;;2.33;;
8225;SDS011;4154;48.810;9.012;2023-05-07T13:40:24;4.45;;;2.03;;
8225;SDS011;4154;48.810;9.012;2023-05-07T13:42:49;3.13;;;2.60;;
8225;SDS011;4154;48.810;9.012;2023-05-07T13:45:17;5.20;;;2.40;;
8225;SDS011;4154;48.810;9.012;2023-05-07T13:47:43;2.45;;;2.10;;
8225;SDS011;4154;48.810;9.012;2023-05-07T13:50:11;2.97;;;2.47;;
8225;SDS011;4154;48.810;9.012;2023-05-07T13:52:41;2.15;;;1.90;;
8225;SDS011;4154;48.810;9.012;2023-05-07T13:55:10;2.58;;;2.13;;
8225;SDS011;4154;48.810;9.012;2023-05-07T13:57:37;2.42;;;2.10;;
8225;SDS011;4154;48.810;9.012;2023-05-07T14:00:03;2.97;;;2.42;;
8225;SDS011;4154;48.810;9.012;2023-05-07T14:02:30;2.42;;;2.20;;
8225;SDS011;4154;48.810;9.012;2023-05-07T14:04:56;2.50;;;2.30;;
8225;SDS011;4154;48.810;9.012;2023-05-07T14:07:22;3.17;;;2.17;;
8225;SDS011;4154;48.810;9.012;2023-05-07T14:09:48;5.03;;;2.90;;
8225;SDS011;4154;48.810;9.012;2023-05-07T14:12:13;3.10;;;2.70;;
8225;SDS011;4154;48.810;9.012;2023-05-07T14:14:39;3.25;;;2.70;;
8225;SDS011;4154;48.810;9.012;2023-05-07T14:17:05;3.10;;;2.78;;
8225;SDS011;4154;48.810;9.012;2023-05-07T14:19:31;4.55;;;2.80;;
8225;SDS011;4154;48.810;9.012;2023-05-07T14:21:57;3.03;;;2.70;;
8225;SDS011;4154;48.810;9.012;2023-05-07T14:24:23;2.75;;;2.50;;
8225;SDS011;4154;48.810;9.012;2023-05-07T14:26:50;2.85;;;2.63;;
8225;SDS011;4154;48.810;9.012;2023-05-07T14:29:16;4.00;;;2.78;;
8225;SDS011;4154;48.810;9.012;2023-05-07T14:31:44;3.50;;;2.88;;
8225;SDS011;4154;48.810;9.012;2023-05-07T14:34:10;4.47;;;2.80;;
8225;SDS011;4154;48.810;9.012;2023-05-07T14:36:36;4.05;;;2.72;;
8225;SDS011;4154;48.810;9.012;2023-05-07T14:39:02;3.33;;;3.00;;
8225;SDS011;4154;48.810;9.012;2023-05-07T14:41:29;3.15;;;2.80;;
8225;SDS011;4154;48.810;9.012;2023-05-07T14:43:56;4.28;;;3.88;;
8225;SDS011;4154;48.810;9.012;2023-05-07T14:46:23;4.15;;;3.85;;
8225;SDS011;4154;48.810;9.012;2023-05-07T14:48:49;4.20;;;3.78;;
8225;SDS011;4154;48.810;9.012;2023-05-07T14:51:15;4.10;;;3.80;;
8225;SDS011;4154;48.810;9.012;2023-05-07T14:53:41;4.50;;;4.07;;
8225;SDS011;4154;48.810;9.012;2023-05-07T14:56:07;4.50;;;3.08;;
8225;SDS011;4154;48.810;9.012;2023-05-07T14:58:33;3.95;;;2.88;;
8225;SDS011;4154;48.810;9.012;2023-05-07T15:00:59;5.63;;;3.20;;
8225;SDS011;4154;48.810;9.012;2023-05-07T15:03:26;4.30;;;2.70;;
8225;SDS011;4154;48.810;9.012;2023-05-07T15:05:52;3.75;;;2.70;;
8225;SDS011;4154;48.810;9.012;2023-05-07T15:08:19;3.85;;;2.50;;
8225;SDS011;4154;48.810;9.012;2023-05-07T15:10:44;2.70;;;2.50;;
8225;SDS011;4154;48.810;9.012;2023-05-07T15:13:11;3.00;;;2.50;;
8225;SDS011;4154;48.810;9.012;2023-05-07T15:15:41;3.08;;;2.50;;
8225;SDS011;4154;48.810;9.012;2023-05-07T15:18:09;3.20;;;2.90;;
8225;SDS011;4154;48.810;9.012;2023-05-07T15:20:35;3.33;;;2.97;;
8225;SDS011;4154;48.810;9.012;2023-05-07T15:23:01;4.05;;;2.90;;
8225;SDS011;4154;48.810;9.012;2023-05-07T15:25:30;3.75;;;2.90;;
8225;SDS011;4154;48.810;9.012;2023-05-07T15:27:57;3.10;;;2.80;;
8225;SDS011;4154;48.810;9.012;2023-05-07T15:30:23;3.85;;;3.55;;
8225;SDS011;4154;48.810;9.012;2023-05-07T15:32:49;4.05;;;3.55;;
8225;SDS011;4154;48.810;9.012;2023-05-07T15:35:15;3.33;;;3.03;;
8225;SDS011;4154;48.810;9.012;2023-05-07T15:37:42;3.40;;;2.70;;
8225;SDS011;4154;48.810;9.012;2023-05-07T15:40:08;3.10;;;2.80;;